createdAt,value
2023-07-05T00:04:27.018Z,81.77
2023-07-05T00:09:30.899Z,80.38
2023-07-05T00:14:34.745Z,81.14
2023-07-05T00:19:38.486Z,79.76
2023-07-05T00:24:42.333Z,80.86
2023-07-05T00:29:46.211Z,82.07
2023-07-05T00:34:50.087Z,83.03
2023-07-05T00:39:54.003Z,81.76
2023-07-05T00:45:13.261Z,81.71
2023-07-05T00:50:26.302Z,82.11
2023-07-05T00:55:30.462Z,82.97
2023-07-05T01:00:34.335Z,84.06
2023-07-05T01:05:39.019Z,83.59
2023-07-05T01:10:48.700Z,83.60
2023-07-05T01:16:23.638Z,83.77
2023-07-05T01:21:49.769Z,84.12
2023-07-05T01:27:11.688Z,85.18
2023-07-05T01:32:18.084Z,86.25
2023-07-05T01:37:29.919Z,85.27
2023-07-05T01:42:35.734Z,84.07
2023-07-05T01:47:54.666Z,84.44
2023-07-05T01:53:09.222Z,85.26
2023-07-05T01:58:16.535Z,86.41
2023-07-05T02:03:23.683Z,85.65
2023-07-05T02:08:31.236Z,84.57
2023-07-05T02:13:35.071Z,84.53
2023-07-05T02:18:41.293Z,84.63
2023-07-05T02:23:45.427Z,84.26
2023-07-05T02:28:50.543Z,85.27
2023-07-05T02:33:54.904Z,83.19
2023-07-05T02:39:00.940Z,83.37
2023-07-05T02:44:05.321Z,83.63
2023-07-05T02:49:10.160Z,83.89
2023-07-05T02:54:14.507Z,84.26
2023-07-05T02:59:18.521Z,83.52
2023-07-05T03:04:22.499Z,83.79
2023-07-05T03:09:26.420Z,83.50
2023-07-05T03:14:30.328Z,83.12
2023-07-05T03:19:34.456Z,83.54
2023-07-05T03:24:38.512Z,83.72
2023-07-05T03:29:42.399Z,83.52
2023-07-05T03:34:46.328Z,82.60
2023-07-05T03:39:54.453Z,83.04
2023-07-05T03:44:58.437Z,83.18
2023-07-05T03:50:02.331Z,80.89
2023-07-05T03:55:07.291Z,79.27
2023-07-05T04:00:12.064Z,76.39
2023-07-05T04:05:20.260Z,73.93
2023-07-05T04:10:26.905Z,71.17
2023-07-05T04:15:30.718Z,68.90
2023-07-05T04:20:34.566Z,66.17
2023-07-05T04:25:38.440Z,63.27
2023-07-05T04:30:42.250Z,61.93
2023-07-05T04:35:54.316Z,59.57
2023-07-05T04:40:59.707Z,57.11
2023-07-05T04:46:03.740Z,56.03
2023-07-05T04:51:07.681Z,55.93
2023-07-05T04:56:14.001Z,54.88
2023-07-05T05:01:19.837Z,56.67
2023-07-05T05:06:24.116Z,55.20
2023-07-05T05:11:30.595Z,52.72
2023-07-05T05:16:34.503Z,51.78
2023-07-05T05:21:38.910Z,52.17
2023-07-05T05:26:42.750Z,54.81
2023-07-05T05:31:46.520Z,57.25
2023-07-05T05:36:51.838Z,58.63
2023-07-05T05:41:55.684Z,59.23
2023-07-05T05:46:59.549Z,59.91
2023-07-05T05:52:03.617Z,60.42
2023-07-05T05:57:08.234Z,60.43
2023-07-05T06:02:12.364Z,60.41
2023-07-05T06:07:19.997Z,60.23
2023-07-05T06:12:24.614Z,59.08
2023-07-05T06:17:28.445Z,57.72
2023-07-05T06:22:33.916Z,57.91
2023-07-05T06:27:38.669Z,58.13
2023-07-05T06:32:45.101Z,57.92
2023-07-05T06:37:48.973Z,57.87
2023-07-05T06:42:53.864Z,57.37
2023-07-05T06:47:59.043Z,57.99
2023-07-05T06:53:23.201Z,57.39
2023-07-05T06:58:33.693Z,57.02
2023-07-05T07:03:37.911Z,57.35
2023-07-05T07:08:41.786Z,56.47
2023-07-05T07:13:45.721Z,56.42
2023-07-05T07:18:51.496Z,56.15
2023-07-05T07:23:55.267Z,56.45
2023-07-05T07:28:59.161Z,55.88
2023-07-05T07:34:04.862Z,55.15
2023-07-05T07:39:09.697Z,54.73
2023-07-05T07:44:14.617Z,54.90
2023-07-05T07:49:18.618Z,54.20
2023-07-05T07:54:27.427Z,54.75
2023-07-05T07:59:31.234Z,53.75
2023-07-05T08:04:35.201Z,53.26
2023-07-05T08:09:39.350Z,52.53
2023-07-05T08:14:43.132Z,52.29
2023-07-05T08:19:48.627Z,52.10
2023-07-05T08:24:53.131Z,52.21
2023-07-05T08:29:57.090Z,51.20
2023-07-05T08:35:00.878Z,51.68
2023-07-05T08:40:08.916Z,51.40
2023-07-05T08:45:12.910Z,50.57
2023-07-05T08:50:28.974Z,49.40
2023-07-05T08:55:55.601Z,48.94
2023-07-05T09:01:11.629Z,49.90
2023-07-05T09:06:23.218Z,48.68
2023-07-05T09:11:59.005Z,47.11
2023-07-05T09:17:10.485Z,45.16
2023-07-05T09:22:20.837Z,45.71
2023-07-05T09:27:28.725Z,45.02
2023-07-05T09:32:37.076Z,44.72
2023-07-05T09:37:45.515Z,44.96
2023-07-05T09:43:03.638Z,43.96
2023-07-05T09:48:12.509Z,43.61
2023-07-05T09:53:34.817Z,41.90
2023-07-05T09:58:40.116Z,42.09
2023-07-05T10:03:55.726Z,41.53
2023-07-05T10:09:12.438Z,39.39
2023-07-05T10:14:18.946Z,39.09
2023-07-05T10:19:32.319Z,39.07
2023-07-05T10:24:47.900Z,38.51
2023-07-05T10:29:59.181Z,38.33
2023-07-05T10:35:03.458Z,38.13
2023-07-05T10:40:11.110Z,38.87
2023-07-05T10:45:16.601Z,38.65
2023-07-05T10:50:35.129Z,39.66
2023-07-05T10:56:07.208Z,39.39
2023-07-05T11:01:19.858Z,38.96
2023-07-05T11:06:24.876Z,39.99
2023-07-05T11:11:32.121Z,39.83
2023-07-05T11:16:36.226Z,39.16
2023-07-05T11:21:46.305Z,39.75
2023-07-05T11:26:50.264Z,40.70
2023-07-05T11:32:14.244Z,41.44
2023-07-05T11:37:18.020Z,40.89
2023-07-05T11:42:22.916Z,40.18
2023-07-05T11:47:26.730Z,40.05
2023-07-05T11:52:33.932Z,39.92
2023-07-05T11:57:46.356Z,40.64
2023-07-05T12:03:01.568Z,40.62
2023-07-05T12:08:14.666Z,40.45
2023-07-05T12:13:26.404Z,42.69
2023-07-05T12:18:32.498Z,45.27
2023-07-05T12:23:37.733Z,49.58
2023-07-05T12:28:44.256Z,50.00
2023-07-05T12:33:56.551Z,52.34
2023-07-05T12:39:09.157Z,52.39
2023-07-05T12:44:20.258Z,52.70
2023-07-05T12:49:30.244Z,52.82
2023-07-05T12:54:43.083Z,52.84
2023-07-05T13:00:04.948Z,52.87
2023-07-05T13:05:21.882Z,53.40
2023-07-05T13:10:30.361Z,54.05
2023-07-05T13:15:38.837Z,54.31
2023-07-05T13:20:50.438Z,54.42
2023-07-05T13:25:54.471Z,54.36
2023-07-05T13:31:04.750Z,54.83
2023-07-05T13:36:09.524Z,55.66
2023-07-05T13:41:13.340Z,56.95
2023-07-05T13:46:17.641Z,58.08
2023-07-05T13:51:30.528Z,60.24
2023-07-05T13:56:37.607Z,61.90
2023-07-05T14:01:49.523Z,62.89
2023-07-05T14:06:54.867Z,63.57
2023-07-05T14:12:00.872Z,65.37
2023-07-05T14:17:05.675Z,66.47
2023-07-05T14:22:20.677Z,66.62
2023-07-05T14:27:25.719Z,66.54
2023-07-05T14:32:29.697Z,67.07
2023-07-05T14:37:36.866Z,67.86
2023-07-05T14:42:41.448Z,65.68
2023-07-05T14:47:52.708Z,64.77
2023-07-05T14:52:58.741Z,63.97
2023-07-05T14:58:03.230Z,64.26
2023-07-05T15:03:10.234Z,64.25
2023-07-05T15:08:15.379Z,64.65
2023-07-05T15:13:22.299Z,65.19
2023-07-05T15:18:26.110Z,65.00
2023-07-05T15:23:37.049Z,66.32
2023-07-05T15:28:41.821Z,66.50
2023-07-05T15:33:45.863Z,66.40
2023-07-05T15:38:50.549Z,66.29
2023-07-05T15:43:54.397Z,66.00
2023-07-05T15:48:58.554Z,65.43
2023-07-05T15:54:03.275Z,63.73
2023-07-05T15:59:14.181Z,62.87
2023-07-05T16:04:18.001Z,61.92
2023-07-05T16:09:22.258Z,61.99
2023-07-05T16:14:30.152Z,61.81
2023-07-05T16:19:40.572Z,62.37
2023-07-05T16:24:46.577Z,64.64
2023-07-05T16:29:53.983Z,65.57
2023-07-05T16:34:58.094Z,66.05
2023-07-05T16:40:05.562Z,66.62
2023-07-05T16:45:13.860Z,67.95
2023-07-05T16:50:18.426Z,68.33
2023-07-05T16:55:23.282Z,69.66
2023-07-05T17:00:30.358Z,72.09
2023-07-05T17:05:35.596Z,72.33
2023-07-05T17:10:40.064Z,71.76
2023-07-05T17:15:44.493Z,72.53
2023-07-05T17:21:00.549Z,72.73
2023-07-05T17:26:11.885Z,73.82
2023-07-05T17:31:22.552Z,74.63
2023-07-05T17:36:28.621Z,75.08
2023-07-05T17:41:33.822Z,74.21
2023-07-05T17:46:44.720Z,74.33
2023-07-05T17:51:49.361Z,74.27
2023-07-05T17:56:53.342Z,74.69
2023-07-05T18:01:57.983Z,73.24
2023-07-05T18:07:03.070Z,72.38
2023-07-05T18:12:07.996Z,72.15
2023-07-05T18:17:12.855Z,72.24
2023-07-05T18:22:17.725Z,71.86
2023-07-05T18:27:22.359Z,72.05
2023-07-05T18:32:26.779Z,72.31
2023-07-05T18:37:32.644Z,72.41
2023-07-05T18:42:37.152Z,71.59
2023-07-05T18:47:42.109Z,71.28
2023-07-05T18:52:46.875Z,71.17
2023-07-05T18:57:51.306Z,71.31
2023-07-05T19:02:55.885Z,71.57
2023-07-05T19:08:00.433Z,71.99
2023-07-05T19:13:04.798Z,72.48
2023-07-05T19:18:10.060Z,72.87
2023-07-05T19:23:15.749Z,73.44
2023-07-05T19:28:19.672Z,73.86
2023-07-05T19:33:23.745Z,74.61
2023-07-05T19:38:28.025Z,75.03
2023-07-05T19:43:34.179Z,75.97
2023-07-05T19:48:38.825Z,76.31
2023-07-05T19:53:46.320Z,78.99
2023-07-05T19:58:51.378Z,78.68
2023-07-05T20:03:56.253Z,79.78
2023-07-05T20:09:05.223Z,80.06
2023-07-05T20:14:10.869Z,80.68
2023-07-05T20:19:16.098Z,80.89
2023-07-05T20:24:20.855Z,81.07
2023-07-05T20:29:25.135Z,81.74
2023-07-05T20:34:29.436Z,83.26
2023-07-05T20:39:33.161Z,83.51
2023-07-05T20:44:37.082Z,83.63
2023-07-05T20:49:40.918Z,83.67
2023-07-05T20:54:51.157Z,83.00
2023-07-05T20:59:56.058Z,83.39
2023-07-05T21:04:59.801Z,83.56
2023-07-05T21:10:03.657Z,83.55
2023-07-05T21:15:08.843Z,82.91
2023-07-05T21:20:13.318Z,84.48
2023-07-05T21:25:17.606Z,84.93
2023-07-05T21:30:21.309Z,85.41
2023-07-05T21:35:31.113Z,85.25
2023-07-05T21:40:38.455Z,85.84
2023-07-05T21:45:46.636Z,86.28
2023-07-05T21:50:51.779Z,87.39
2023-07-05T21:56:03.620Z,85.84
2023-07-05T22:01:09.763Z,85.55
2023-07-05T22:06:13.719Z,84.94
2023-07-05T22:11:17.685Z,84.28
2023-07-05T22:16:21.753Z,84.48
2023-07-05T22:21:26.503Z,84.21
2023-07-05T22:26:30.301Z,84.13
2023-07-05T22:31:35.087Z,84.17
2023-07-05T22:36:39.753Z,83.97
2023-07-05T22:41:43.403Z,84.24
2023-07-05T22:46:47.194Z,83.98
2023-07-05T22:51:53.207Z,84.01
2023-07-05T22:56:58.394Z,84.79
2023-07-05T23:02:05.184Z,85.02
2023-07-05T23:07:09.420Z,84.07
2023-07-05T23:12:13.349Z,84.34
2023-07-05T23:17:17.194Z,84.41
2023-07-05T23:22:21.074Z,84.42
2023-07-05T23:27:24.900Z,84.17
2023-07-05T23:32:29.924Z,83.92
2023-07-05T23:37:33.698Z,83.59
2023-07-05T23:42:38.789Z,83.04
2023-07-05T23:47:42.902Z,82.66
2023-07-05T23:52:46.801Z,82.42
2023-07-05T23:57:50.580Z,82.28
